Time;durP1;ratioP1;P1;durP2;ratioP2;P2;SDS_P1;SDS_P2;PMS_P1;PMS_P2;Temp;Humidity;BMP_temperature;BMP_pressure;BME280_temperature;BME280_humidity;BME280_pressure;Samples;Min_cycle;Max_cycle;Signal;HPM_P1;HPM_P2
2021/01/10 00:00:28;;;;;;;;;;;7.40;99.90;;;;;;5054286;28;20023;-72
2021/01/10 00:02:56;;;;;;;;;;;7.40;99.90;;;;;;5052182;28;19925;-73
2021/01/10 00:05:24;;;;;;;;;;;7.40;99.90;;;;;;5054411;28;19990;-72
2021/01/10 00:07:50;;;;;;;;;;;7.40;99.90;;;;;;5040979;28;20333;-72
2021/01/10 00:10:17;;;;;;;;;;;7.40;99.90;;;;;;5044615;28;20012;-73
2021/01/10 00:12:44;;;;;;;;;;;7.50;99.90;;;;;;5051484;28;20023;-73
2021/01/10 00:15:11;;;;;;;;;;;7.40;99.90;;;;;;5053487;28;20020;-73
2021/01/10 00:17:37;;;;;;;;;;;7.50;99.80;;;;;;5053646;28;20058;-73
2021/01/10 00:20:05;;;;;;;;;;;7.40;99.70;;;;;;5050115;28;20519;-72
2021/01/10 00:22:32;;;;;;;;;;;7.40;99.70;;;;;;5054326;28;20311;-73
2021/01/10 00:24:58;;;;;;;;;;;7.40;99.80;;;;;;5053817;28;20011;-73
2021/01/10 00:27:24;;;;;;;;;;;7.40;99.80;;;;;;5053837;28;20011;-73
2021/01/10 00:29:52;;;;;;;;;;;7.40;99.90;;;;;;5054075;28;19944;-73
2021/01/10 00:32:19;;;;;;;;;;;7.40;99.80;;;;;;5053756;28;20031;-73
2021/01/10 00:34:46;;;;;;;;;;;7.40;99.70;;;;;;5053840;28;20019;-72
2021/01/10 00:37:13;;;;;;;;;;;7.40;99.80;;;;;;5053276;28;19925;-73
2021/01/10 00:39:41;;;;;;;;;;;7.40;99.90;;;;;;5041434;28;19925;-72
2021/01/10 00:42:07;;;;;;;;;;;7.40;99.80;;;;;;5053370;28;19925;-72
2021/01/10 00:44:34;;;;;;;;;;;7.40;99.80;;;;;;5045565;28;19925;-72
2021/01/10 00:47:00;;;;;;;;;;;7.40;99.90;;;;;;5052552;28;20011;-73
2021/01/10 00:49:26;;;;;;;;;;;7.30;99.80;;;;;;5053511;28;20036;-72
2021/01/10 00:51:53;;;;;;;;;;;7.30;99.80;;;;;;5053571;28;19925;-73
2021/01/10 00:54:19;;;;;;;;;;;7.30;99.70;;;;;;5053471;28;19972;-73
2021/01/10 00:56:46;;;;;;;;;;;7.40;99.70;;;;;;5053519;28;20039;-73
2021/01/10 00:59:13;;;;;;;;;;;7.40;99.80;;;;;;5053054;28;20016;-73
2021/01/10 01:01:39;;;;;;;;;;;7.30;99.80;;;;;;5045529;28;19935;-72
2021/01/10 01:04:05;;;;;;;;;;;7.40;99.90;;;;;;5050380;28;20278;-72
2021/01/10 01:06:32;;;;;;;;;;;7.40;99.80;;;;;;5053528;28;20361;-73
2021/01/10 01:08:58;;;;;;;;;;;7.40;99.70;;;;;;5052838;28;19982;-73
2021/01/10 01:11:28;;;;;;;;;;;7.40;99.70;;;;;;5052961;28;20066;-73
2021/01/10 01:13:55;;;;;;;;;;;7.40;99.60;;;;;;5041135;28;20003;-73
2021/01/10 01:16:21;;;;;;;;;;;7.40;99.60;;;;;;5052746;28;20020;-73
2021/01/10 01:18:47;;;;;;;;;;;7.40;99.50;;;;;;5048221;28;19932;-72
2021/01/10 01:21:16;;;;;;;;;;;7.50;99.40;;;;;;5052824;28;19925;-72
2021/01/10 01:23:43;;;;;;;;;;;7.40;99.50;;;;;;5052996;28;20011;-73
2021/01/10 01:26:14;;;;;;;;;;;7.40;99.50;;;;;;5052446;28;20042;-73
2021/01/10 01:28:41;;;;;;;;;;;7.40;99.60;;;;;;5039964;28;20082;-73
2021/01/10 01:31:08;;;;;;;;;;;7.50;99.20;;;;;;5052555;28;20343;-72
2021/01/10 01:33:35;;;;;;;;;;;7.50;99.10;;;;;;5041667;28;20313;-73
2021/01/10 01:36:01;;;;;;;;;;;7.40;99.20;;;;;;5052492;28;19925;-73
2021/01/10 01:38:28;;;;;;;;;;;7.40;99.30;;;;;;5046589;28;20016;-73
2021/01/10 01:40:58;;;;;;;;;;;7.40;99.30;;;;;;5047865;28;20024;-73
2021/01/10 01:43:24;;;;;;;;;;;7.30;99.40;;;;;;5052885;28;20015;-73
2021/01/10 01:45:50;;;;;;;;;;;7.30;99.30;;;;;;5047510;28;20258;-72
2021/01/10 01:48:17;;;;;;;;;;;7.30;99.30;;;;;;5053336;28;20040;-73
2021/01/10 01:50:44;;;;;;;;;;;7.30;99.50;;;;;;5052596;28;20011;-72
2021/01/10 01:53:10;;;;;;;;;;;7.20;99.50;;;;;;5052096;28;20016;-72
2021/01/10 01:55:37;;;;;;;;;;;7.30;99.50;;;;;;5052712;28;20004;-73
2021/01/10 01:58:04;;;;;;;;;;;7.30;99.40;;;;;;5052316;28;20402;-72
2021/01/10 02:00:31;;;;;;;;;;;7.30;99.50;;;;;;5051726;28;19925;-71
2021/01/10 02:02:57;;;;;;;;;;;7.30;99.40;;;;;;5042421;28;20011;-72
2021/01/10 02:05:27;;;;;;;;;;;7.30;99.40;;;;;;5051848;28;20357;-71
2021/01/10 02:07:55;;;;;;;;;;;7.30;99.40;;;;;;5052447;28;20019;-71
2021/01/10 02:10:23;;;;;;;;;;;7.30;99.20;;;;;;5052052;28;20028;-71
2021/01/10 02:12:50;;;;;;;;;;;7.30;99.30;;;;;;5052202;28;19925;-72
2021/01/10 02:15:17;;;;;;;;;;;7.30;99.30;;;;;;5051929;28;19943;-72
2021/01/10 02:17:46;;;;;;;;;;;7.30;99.10;;;;;;5046771;28;20027;-72
2021/01/10 02:20:13;;;;;;;;;;;7.30;98.90;;;;;;5042168;28;20453;-72
2021/01/10 02:22:43;;;;;;;;;;;7.20;99.10;;;;;;5052415;28;20000;-72
2021/01/10 02:25:12;;;;;;;;;;;7.20;99.10;;;;;;5051744;28;20017;-72
2021/01/10 02:27:38;;;;;;;;;;;7.20;99.00;;;;;;5052317;28;20024;-72
2021/01/10 02:30:05;;;;;;;;;;;7.20;98.80;;;;;;5052082;28;20316;-72
2021/01/10 02:32:33;;;;;;;;;;;7.20;98.80;;;;;;5052185;28;19925;-72
2021/01/10 02:34:59;;;;;;;;;;;7.20;98.70;;;;;;5052079;28;20019;-71
2021/01/10 02:37:40;;;;;;;;;;;7.20;98.80;;;;;;5051503;28;19929;-72
2021/01/10 02:40:11;;;;;;;;;;;7.20;99.00;;;;;;5051654;28;19925;-72
2021/01/10 02:42:40;;;;;;;;;;;7.10;98.90;;;;;;5044122;28;19925;-72
2021/01/10 02:45:08;;;;;;;;;;;7.20;98.70;;;;;;5045746;28;19962;-72
2021/01/10 02:47:35;;;;;;;;;;;7.10;98.90;;;;;;5040626;28;20358;-72
2021/01/10 02:50:01;;;;;;;;;;;7.10;98.90;;;;;;5051873;28;20027;-71
2021/01/10 02:52:27;;;;;;;;;;;7.20;98.80;;;;;;5051653;28;19947;-72
2021/01/10 02:54:53;;;;;;;;;;;7.10;99.00;;;;;;5051912;28;20450;-72
2021/01/10 02:57:24;;;;;;;;;;;7.10;98.80;;;;;;5046561;28;20016;-72
2021/01/10 02:59:50;;;;;;;;;;;7.10;98.80;;;;;;5050623;28;20322;-72
2021/01/10 03:02:17;;;;;;;;;;;7.10;98.90;;;;;;5047226;28;19995;-72
2021/01/10 03:04:44;;;;;;;;;;;7.10;98.90;;;;;;5051448;28;19925;-71
2021/01/10 03:07:10;;;;;;;;;;;7.10;98.90;;;;;;5051387;28;20011;-72
2021/01/10 03:09:37;;;;;;;;;;;7.10;98.90;;;;;;5052020;28;20015;-71
2021/01/10 03:12:13;;;;;;;;;;;7.10;98.80;;;;;;5051198;28;20286;-71
2021/01/10 03:14:40;;;;;;;;;;;7.10;98.70;;;;;;5046673;28;20749;-72
2021/01/10 03:17:08;;;;;;;;;;;7.00;98.80;;;;;;5055300;28;19939;-71
2021/01/10 03:19:34;;;;;;;;;;;7.00;98.60;;;;;;5052040;28;19949;-72
2021/01/10 03:22:00;;;;;;;;;;;7.00;98.50;;;;;;5052602;28;20317;-71
2021/01/10 03:24:26;;;;;;;;;;;7.10;98.50;;;;;;5048069;28;20308;-71
2021/01/10 03:26:52;;;;;;;;;;;7.00;98.40;;;;;;5054832;28;20011;-71
2021/01/10 03:29:19;;;;;;;;;;;7.00;98.60;;;;;;5054622;28;19938;-71
2021/01/10 03:31:48;;;;;;;;;;;7.00;98.50;;;;;;5049652;28;20008;-71
2021/01/10 03:34:14;;;;;;;;;;;6.90;98.50;;;;;;5055253;28;19925;-71
2021/01/10 03:36:41;;;;;;;;;;;6.90;98.30;;;;;;5063139;28;20534;-72
2021/01/10 03:39:07;;;;;;;;;;;6.90;98.50;;;;;;5052919;28;19956;-72
2021/01/10 03:41:33;;;;;;;;;;;6.80;98.50;;;;;;5054448;28;19940;-72
2021/01/10 03:44:00;;;;;;;;;;;6.90;98.70;;;;;;5055063;28;19925;-72
2021/01/10 03:46:26;;;;;;;;;;;6.90;98.60;;;;;;5038300;28;20333;-71
2021/01/10 03:48:53;;;;;;;;;;;6.80;98.60;;;;;;5053351;28;19943;-72
2021/01/10 03:51:19;;;;;;;;;;;6.80;98.60;;;;;;5054476;28;20044;-72
2021/01/10 03:53:46;;;;;;;;;;;6.80;98.50;;;;;;5054666;28;20004;-71
2021/01/10 03:56:12;;;;;;;;;;;6.80;98.40;;;;;;5049781;28;19925;-72
2021/01/10 03:58:38;;;;;;;;;;;6.80;98.10;;;;;;5054457;28;19924;-71
2021/01/10 04:01:05;;;;;;;;;;;6.90;97.90;;;;;;5051264;28;20282;-71
2021/01/10 04:03:31;;;;;;;;;;;6.80;98.00;;;;;;5051986;28;19925;-72
2021/01/10 04:05:58;;;;;;;;;;;6.80;97.50;;;;;;5054656;28;19924;-71
2021/01/10 04:08:24;;;;;;;;;;;6.80;97.60;;;;;;5053998;28;20050;-72
2021/01/10 04:10:50;;;;;;;;;;;6.80;97.60;;;;;;5054738;28;19925;-71
2021/01/10 04:13:16;;;;;;;;;;;6.80;97.30;;;;;;5053855;28;20381;-71
2021/01/10 04:15:43;;;;;;;;;;;6.80;97.30;;;;;;5053943;28;19924;-71
2021/01/10 04:18:09;;;;;;;;;;;6.90;97.30;;;;;;5049414;28;20024;-71
2021/01/10 04:20:35;;;;;;;;;;;6.90;97.00;;;;;;5046796;28;19925;-71
2021/01/10 04:23:02;;;;;;;;;;;6.90;96.90;;;;;;5053897;28;19961;-72
2021/01/10 04:25:29;;;;;;;;;;;6.90;96.90;;;;;;5053849;28;20020;-71
2021/01/10 04:27:55;;;;;;;;;;;6.90;97.00;;;;;;5054343;28;20008;-72
2021/01/10 04:30:21;;;;;;;;;;;6.90;96.90;;;;;;5053494;28;20350;-71
2021/01/10 04:32:47;;;;;;;;;;;6.90;96.60;;;;;;5053926;28;19935;-71
2021/01/10 04:35:14;;;;;;;;;;;6.90;96.60;;;;;;5053827;28;20039;-71
2021/01/10 04:37:40;;;;;;;;;;;6.90;96.60;;;;;;5053966;28;20422;-71
2021/01/10 04:40:08;;;;;;;;;;;6.90;96.60;;;;;;5048150;28;19929;-72
2021/01/10 04:42:34;;;;;;;;;;;6.90;96.60;;;;;;5053449;28;20424;-71
2021/01/10 04:45:01;;;;;;;;;;;6.90;96.40;;;;;;5053948;28;20350;-71
2021/01/10 04:47:27;;;;;;;;;;;6.80;96.40;;;;;;5049391;28;20409;-71
2021/01/10 04:49:54;;;;;;;;;;;6.80;96.50;;;;;;5053019;28;20401;-71
2021/01/10 04:52:21;;;;;;;;;;;6.80;96.70;;;;;;5053743;28;19932;-71
2021/01/10 04:54:47;;;;;;;;;;;6.80;96.70;;;;;;5061589;28;20036;-72
2021/01/10 04:57:14;;;;;;;;;;;6.80;96.80;;;;;;5053571;28;19945;-71
2021/01/10 04:59:41;;;;;;;;;;;6.80;96.80;;;;;;5052895;28;19929;-71
2021/01/10 05:02:08;;;;;;;;;;;6.80;96.60;;;;;;5053579;28;19936;-71
2021/01/10 05:04:34;;;;;;;;;;;6.80;96.40;;;;;;5053268;28;20271;-71
2021/01/10 05:07:00;;;;;;;;;;;6.80;96.40;;;;;;5053139;28;19933;-71
2021/01/10 05:09:27;;;;;;;;;;;6.70;96.40;;;;;;5052881;28;19932;-71
2021/01/10 05:11:53;;;;;;;;;;;6.70;96.20;;;;;;5052251;28;19925;-71
2021/01/10 05:14:20;;;;;;;;;;;6.70;96.10;;;;;;5053342;28;20004;-72
2021/01/10 05:16:47;;;;;;;;;;;6.70;96.10;;;;;;5052653;28;20023;-71
2021/01/10 05:19:17;;;;;;;;;;;6.70;96.10;;;;;;5053464;28;19925;-71
2021/01/10 05:21:43;;;;;;;;;;;6.70;96.20;;;;;;5052809;28;19925;-72
2021/01/10 05:24:16;;;;;;;;;;;6.70;96.30;;;;;;5053118;28;20422;-71
2021/01/10 05:26:42;;;;;;;;;;;6.70;96.30;;;;;;5052428;28;19935;-71
2021/01/10 05:29:10;;;;;;;;;;;6.70;96.10;;;;;;5052471;28;19924;-71
2021/01/10 05:31:39;;;;;;;;;;;6.70;95.60;;;;;;5052586;28;20035;-71
2021/01/10 05:34:06;;;;;;;;;;;6.80;95.60;;;;;;5053128;28;20003;-71
2021/01/10 05:36:33;;;;;;;;;;;6.70;95.50;;;;;;5051856;28;19925;-71
2021/01/10 05:39:14;;;;;;;;;;;6.70;95.60;;;;;;5045237;28;20393;-71
2021/01/10 05:41:41;;;;;;;;;;;6.60;95.70;;;;;;5044341;28;20361;-71
2021/01/10 05:44:07;;;;;;;;;;;6.60;95.90;;;;;;5053104;28;19935;-71
2021/01/10 05:46:34;;;;;;;;;;;6.60;95.70;;;;;;5041391;28;19925;-71
2021/01/10 05:49:01;;;;;;;;;;;6.60;95.50;;;;;;5051022;28;19947;-71
2021/01/10 05:51:28;;;;;;;;;;;6.60;95.80;;;;;;5052250;28;19929;-71
2021/01/10 05:53:54;;;;;;;;;;;6.60;95.30;;;;;;5052594;28;19995;-71
2021/01/10 05:56:21;;;;;;;;;;;6.60;95.40;;;;;;5052732;28;19925;-71
2021/01/10 05:58:53;;;;;;;;;;;6.60;95.30;;;;;;5052302;28;20028;-71
2021/01/10 06:01:21;;;;;;;;;;;6.50;95.50;;;;;;5047355;28;19925;-71
2021/01/10 06:03:47;;;;;;;;;;;6.60;95.60;;;;;;5052085;28;19993;-71
2021/01/10 06:06:15;;;;;;;;;;;6.60;95.60;;;;;;5052719;28;20318;-71
2021/01/10 06:08:41;;;;;;;;;;;6.60;95.30;;;;;;5046503;28;20252;-71
2021/01/10 06:11:17;;;;;;;;;;;6.60;95.30;;;;;;5052149;28;20417;-71
2021/01/10 06:13:46;;;;;;;;;;;6.60;95.40;;;;;;5047563;28;20015;-71
2021/01/10 06:16:13;;;;;;;;;;;6.60;95.10;;;;;;5052315;28;19935;-71
2021/01/10 06:18:42;;;;;;;;;;;6.60;95.20;;;;;;5052162;28;19924;-71
2021/01/10 06:21:15;;;;;;;;;;;6.60;95.20;;;;;;5052389;28;19935;-71
2021/01/10 06:23:43;;;;;;;;;;;6.60;95.30;;;;;;5052189;28;19928;-71
2021/01/10 06:26:10;;;;;;;;;;;6.60;95.20;;;;;;5052176;28;20000;-71
2021/01/10 06:28:37;;;;;;;;;;;6.60;95.20;;;;;;5052255;28;19929;-71
2021/01/10 06:31:04;;;;;;;;;;;6.60;94.80;;;;;;5052234;28;19924;-71
2021/01/10 06:33:31;;;;;;;;;;;6.60;94.80;;;;;;5052010;28;20019;-71
2021/01/10 06:36:01;;;;;;;;;;;6.60;94.80;;;;;;5052254;28;20019;-71
2021/01/10 06:38:31;;;;;;;;;;;6.60;94.20;;;;;;5052329;28;20024;-71
2021/01/10 06:41:10;;;;;;;;;;;6.60;94.10;;;;;;5060276;28;19932;-71
2021/01/10 06:43:38;;;;;;;;;;;6.60;94.00;;;;;;5051881;28;19925;-72
2021/01/10 06:46:06;;;;;;;;;;;6.50;94.00;;;;;;5038415;28;19933;-71
2021/01/10 06:48:32;;;;;;;;;;;6.50;94.20;;;;;;5050451;28;20063;-71
2021/01/10 06:51:02;;;;;;;;;;;6.40;94.40;;;;;;5064294;28;20028;-71
2021/01/10 06:53:28;;;;;;;;;;;6.40;94.60;;;;;;5055979;28;19929;-71
2021/01/10 06:55:54;;;;;;;;;;;6.50;94.50;;;;;;5055601;28;19933;-71
2021/01/10 06:58:21;;;;;;;;;;;6.50;94.50;;;;;;5056056;28;19935;-71
2021/01/10 07:00:54;;;;;;;;;;;6.50;94.40;;;;;;5055199;28;19982;-71
2021/01/10 07:03:20;;;;;;;;;;;6.60;94.10;;;;;;5055701;28;19925;-71
2021/01/10 07:06:12;;;;;;;;;;;6.60;94.20;;;;;;5055500;28;20031;-71
2021/01/10 07:08:39;;;;;;;;;;;6.60;94.70;;;;;;5055383;28;19924;-71
2021/01/10 07:11:30;;;;;;;;;;;6.60;94.40;;;;;;5055460;28;19924;-71
2021/01/10 07:14:11;;;;;;;;;;;6.60;94.20;;;;;;5054576;28;20027;-71
2021/01/10 07:16:39;;;;;;;;;;;6.60;94.20;;;;;;5054884;28;19989;-71
2021/01/10 07:19:06;;;;;;;;;;;6.60;94.20;;;;;;5052708;28;19925;-71
2021/01/10 07:21:33;;;;;;;;;;;6.60;94.00;;;;;;5055088;28;19932;-71
2021/01/10 07:24:28;;;;;;;;;;;6.60;94.00;;;;;;5055096;28;20303;-71
2021/01/10 07:26:56;;;;;;;;;;;6.60;93.80;;;;;;5055244;28;20320;-71
2021/01/10 07:29:25;;;;;;;;;;;6.60;93.90;;;;;;5044553;28;19925;-71
2021/01/10 07:31:56;;;;;;;;;;;6.60;93.90;;;;;;5033307;28;20012;-71
2021/01/10 07:34:22;;;;;;;;;;;6.60;93.90;;;;;;5034685;28;19925;-71
2021/01/10 07:36:50;;;;;;;;;;;6.50;94.00;;;;;;5043969;28;20347;-71
2021/01/10 07:39:17;;;;;;;;;;;6.50;94.00;;;;;;5054668;28;19940;-71
2021/01/10 07:41:43;;;;;;;;;;;6.50;93.60;;;;;;5053077;28;19928;-71
2021/01/10 07:44:10;;;;;;;;;;;6.50;93.60;;;;;;5054545;28;20292;-71
2021/01/10 07:47:00;;;;;;;;;;;6.50;93.60;;;;;;5054521;28;19928;-71
2021/01/10 07:49:31;;;;;;;;;;;6.50;93.60;;;;;;5054174;28;20375;-71
2021/01/10 07:51:58;;;;;;;;;;;6.50;93.70;;;;;;5054415;28;20366;-71
2021/01/10 07:54:43;;;;;;;;;;;6.40;93.90;;;;;;5054899;28;20371;-71
2021/01/10 07:57:39;;;;;;;;;;;6.40;94.00;;;;;;5055016;28;20049;-71
2021/01/10 08:00:23;;;;;;;;;;;6.30;94.10;;;;;;5001836;28;19936;-71
2021/01/10 08:02:50;;;;;;;;;;;6.30;94.20;;;;;;5047454;28;20359;-71
2021/01/10 08:05:18;;;;;;;;;;;6.40;94.10;;;;;;5054319;28;20019;-71
2021/01/10 08:07:51;;;;;;;;;;;6.30;94.10;;;;;;5063099;28;19925;-71
2021/01/10 08:10:18;;;;;;;;;;;6.30;94.30;;;;;;5056937;28;19936;-71
2021/01/10 08:12:44;;;;;;;;;;;6.30;94.30;;;;;;5074363;28;19924;-71
2021/01/10 08:15:12;;;;;;;;;;;6.30;94.30;;;;;;5056093;28;20434;-72
2021/01/10 08:17:38;;;;;;;;;;;6.30;94.50;;;;;;5054681;28;19925;-72
2021/01/10 08:20:05;;;;;;;;;;;6.30;94.40;;;;;;5054070;28;19925;-72
2021/01/10 08:22:33;;;;;;;;;;;6.30;94.40;;;;;;5054813;28;19937;-72
2021/01/10 08:24:59;;;;;;;;;;;6.20;94.30;;;;;;5054463;28;20070;-72
2021/01/10 08:27:25;;;;;;;;;;;6.10;94.40;;;;;;5053748;28;20019;-72
2021/01/10 08:29:52;;;;;;;;;;;6.10;94.50;;;;;;5054788;28;20321;-72
2021/01/10 08:32:19;;;;;;;;;;;6.10;94.60;;;;;;5053771;28;20420;-72
2021/01/10 08:34:46;;;;;;;;;;;6.10;94.50;;;;;;5054652;28;20020;-72
2021/01/10 08:37:13;;;;;;;;;;;6.10;94.50;;;;;;5053838;28;19987;-72
2021/01/10 08:39:40;;;;;;;;;;;6.20;94.50;;;;;;5054374;28;20252;-72
2021/01/10 08:42:06;;;;;;;;;;;6.20;94.50;;;;;;5053879;28;19928;-72
2021/01/10 08:44:33;;;;;;;;;;;6.20;94.70;;;;;;5054286;28;19929;-72
2021/01/10 08:46:59;;;;;;;;;;;6.20;94.60;;;;;;5054033;28;19935;-72
2021/01/10 08:49:26;;;;;;;;;;;6.10;94.60;;;;;;5053744;28;20023;-72
2021/01/10 08:51:52;;;;;;;;;;;6.10;94.70;;;;;;5053826;28;19925;-72
2021/01/10 08:54:19;;;;;;;;;;;6.10;94.70;;;;;;5053470;28;19929;-72
2021/01/10 08:56:50;;;;;;;;;;;6.10;94.60;;;;;;5053954;28;20019;-72
2021/01/10 08:59:18;;;;;;;;;;;6.10;94.50;;;;;;5053506;28;20012;-72
2021/01/10 09:01:44;;;;;;;;;;;6.10;94.40;;;;;;5053683;28;19931;-72
2021/01/10 09:04:13;;;;;;;;;;;6.10;94.20;;;;;;5053621;28;20011;-72
2021/01/10 09:06:47;;;;;;;;;;;6.10;94.00;;;;;;5053601;28;20011;-72
2021/01/10 09:09:19;;;;;;;;;;;6.10;94.20;;;;;;5052693;28;19978;-72
2021/01/10 09:11:48;;;;;;;;;;;6.10;94.30;;;;;;5049998;28;19929;-71
2021/01/10 09:14:16;;;;;;;;;;;6.10;94.40;;;;;;5033349;28;20016;-72
2021/01/10 09:16:42;;;;;;;;;;;6.10;94.30;;;;;;5033473;28;20426;-72
2021/01/10 09:19:09;;;;;;;;;;;6.10;94.20;;;;;;5033236;28;19925;-72
2021/01/10 09:21:35;;;;;;;;;;;6.10;94.20;;;;;;5033582;28;19925;-72
2021/01/10 09:24:02;;;;;;;;;;;6.10;94.20;;;;;;5045246;28;20024;-72
2021/01/10 09:26:29;;;;;;;;;;;6.10;94.30;;;;;;5053163;28;19924;-72
2021/01/10 09:28:56;;;;;;;;;;;6.10;94.00;;;;;;5053586;28;19928;-72
2021/01/10 09:31:36;;;;;;;;;;;6.00;94.20;;;;;;5052736;28;20004;-72
2021/01/10 09:34:04;;;;;;;;;;;6.00;94.00;;;;;;5053506;28;19929;-72
2021/01/10 09:36:31;;;;;;;;;;;6.00;94.10;;;;;;5053042;28;20108;-72
2021/01/10 09:38:58;;;;;;;;;;;6.10;93.90;;;;;;5053040;28;20012;-72
2021/01/10 09:41:24;;;;;;;;;;;6.10;93.90;;;;;;5052773;28;20012;-72
2021/01/10 09:43:51;;;;;;;;;;;6.10;93.80;;;;;;5053172;28;20007;-72
2021/01/10 09:46:28;;;;;;;;;;;6.10;93.70;;;;;;5052553;28;20007;-72
2021/01/10 09:48:55;;;;;;;;;;;6.00;93.50;;;;;;5053139;28;20365;-71
2021/01/10 09:51:22;;;;;;;;;;;6.10;93.80;;;;;;5052591;28;19925;-72
2021/01/10 09:53:48;;;;;;;;;;;6.10;93.60;;;;;;5052919;28;20408;-72
2021/01/10 09:56:15;;;;;;;;;;;6.00;93.50;;;;;;5052479;28;19924;-72
2021/01/10 09:58:41;;;;;;;;;;;6.10;93.50;;;;;;5052959;28;19925;-72
2021/01/10 10:01:09;;;;;;;;;;;6.20;93.60;;;;;;5052375;28;20027;-72
2021/01/10 10:03:36;;;;;;;;;;;6.20;93.60;;;;;;5053112;28;19960;-72
2021/01/10 10:06:03;;;;;;;;;;;6.20;93.40;;;;;;5052516;28;19924;-72
2021/01/10 10:08:29;;;;;;;;;;;6.20;93.20;;;;;;5052315;28;19928;-72
2021/01/10 10:10:55;;;;;;;;;;;6.20;93.30;;;;;;5052564;28;20007;-72
2021/01/10 10:13:27;;;;;;;;;;;6.30;93.00;;;;;;5035693;28;19925;-72
2021/01/10 10:15:54;;;;;;;;;;;6.40;92.90;;;;;;5031661;28;19975;-72
2021/01/10 10:18:21;;;;;;;;;;;6.30;92.60;;;;;;5032320;28;20019;-72
2021/01/10 10:20:48;;;;;;;;;;;6.40;92.80;;;;;;5033160;28;19925;-72
2021/01/10 10:23:15;;;;;;;;;;;6.30;92.70;;;;;;5041818;28;20177;-72
2021/01/10 10:25:42;;;;;;;;;;;6.40;92.60;;;;;;5057015;28;20024;-72
2021/01/10 10:28:08;;;;;;;;;;;6.40;92.40;;;;;;5056843;28;20432;-72
2021/01/10 10:30:35;;;;;;;;;;;6.40;92.40;;;;;;5056605;28;21082;-72
2021/01/10 10:33:01;;;;;;;;;;;6.40;92.40;;;;;;5050655;28;19982;-72
2021/01/10 10:35:28;;;;;;;;;;;6.40;92.40;;;;;;5036091;28;19933;-72
2021/01/10 10:37:55;;;;;;;;;;;6.40;92.40;;;;;;5036993;28;20316;-72
2021/01/10 10:40:21;;;;;;;;;;;6.40;92.40;;;;;;5035992;28;20070;-72
2021/01/10 10:42:48;;;;;;;;;;;6.40;92.40;;;;;;5036648;28;20016;-72
2021/01/10 10:45:15;;;;;;;;;;;6.40;92.40;;;;;;5036087;28;20075;-72
2021/01/10 10:47:41;;;;;;;;;;;6.40;92.40;;;;;;5036494;28;19936;-72
2021/01/10 10:50:08;;;;;;;;;;;6.30;92.60;;;;;;5036224;28;20016;-72
2021/01/10 10:52:34;;;;;;;;;;;6.30;92.00;;;;;;5036322;28;20012;-72
2021/01/10 10:55:02;;;;;;;;;;;6.30;92.10;;;;;;5036355;28;19948;-72
2021/01/10 10:57:28;;;;;;;;;;;6.30;92.10;;;;;;5035745;28;20114;-72
2021/01/10 10:59:54;;;;;;;;;;;6.30;92.30;;;;;;5036456;28;20012;-72
2021/01/10 11:02:20;;;;;;;;;;;6.30;91.90;;;;;;5035503;28;20055;-72
2021/01/10 11:04:47;;;;;;;;;;;6.30;92.10;;;;;;5036433;28;19932;-72
2021/01/10 11:07:13;;;;;;;;;;;6.20;92.30;;;;;;5037459;28;19964;-72
2021/01/10 11:09:39;;;;;;;;;;;6.20;92.50;;;;;;5056192;28;19925;-71
2021/01/10 11:12:09;;;;;;;;;;;6.20;92.70;;;;;;5055992;28;20090;-71
2021/01/10 11:14:35;;;;;;;;;;;6.20;92.60;;;;;;5055576;28;19932;-72
2021/01/10 11:17:03;;;;;;;;;;;6.20;92.60;;;;;;5055794;28;20012;-72
2021/01/10 11:19:29;;;;;;;;;;;6.20;92.50;;;;;;5055662;28;20023;-72
2021/01/10 11:21:56;;;;;;;;;;;6.30;92.50;;;;;;5056030;28;19929;-72
2021/01/10 11:24:22;;;;;;;;;;;6.20;92.30;;;;;;5055416;28;19924;-73
2021/01/10 11:26:48;;;;;;;;;;;6.20;92.50;;;;;;5055598;28;19932;-72
2021/01/10 11:29:16;;;;;;;;;;;6.20;92.40;;;;;;5055414;28;19951;-72
2021/01/10 11:31:42;;;;;;;;;;;6.20;92.40;;;;;;5055232;28;19924;-72
2021/01/10 11:34:09;;;;;;;;;;;6.20;92.40;;;;;;5054413;28;20003;-71
2021/01/10 11:36:36;;;;;;;;;;;6.30;92.30;;;;;;5054906;28;19932;-71
2021/01/10 11:39:03;;;;;;;;;;;6.30;92.30;;;;;;5055567;28;20016;-72
2021/01/10 11:41:29;;;;;;;;;;;6.30;92.10;;;;;;5054742;28;20012;-72
2021/01/10 11:43:56;;;;;;;;;;;6.40;92.00;;;;;;5055468;28;20030;-71
2021/01/10 11:46:23;;;;;;;;;;;6.40;92.00;;;;;;5054058;28;20271;-72
2021/01/10 11:48:50;;;;;;;;;;;6.50;91.90;;;;;;5049112;28;19925;-72
2021/01/10 11:51:17;;;;;;;;;;;6.50;91.90;;;;;;5050526;28;20003;-72
2021/01/10 11:53:43;;;;;;;;;;;6.50;91.70;;;;;;5054373;28;19931;-72
2021/01/10 11:56:10;;;;;;;;;;;6.60;91.70;;;;;;5054082;28;19925;-72
2021/01/10 11:58:38;;;;;;;;;;;6.60;91.90;;;;;;5053963;28;19931;-72
2021/01/10 12:01:04;;;;;;;;;;;6.50;91.60;;;;;;5054544;28;20026;-72
2021/01/10 12:03:31;;;;;;;;;;;6.60;91.90;;;;;;5054573;28;19925;-72
2021/01/10 12:05:57;;;;;;;;;;;6.60;91.60;;;;;;5054686;28;20003;-72
2021/01/10 12:08:23;;;;;;;;;;;6.60;91.80;;;;;;5066187;28;20065;-72
2021/01/10 12:10:50;;;;;;;;;;;6.60;91.60;;;;;;5062680;28;19951;-72
2021/01/10 12:13:17;;;;;;;;;;;6.60;91.60;;;;;;5034258;28;20000;-72
2021/01/10 12:15:44;;;;;;;;;;;6.60;91.60;;;;;;5034862;28;19936;-72
2021/01/10 12:18:11;;;;;;;;;;;6.50;91.50;;;;;;5034946;28;19935;-72
2021/01/10 12:20:38;;;;;;;;;;;6.50;91.70;;;;;;5034284;28;20071;-72
2021/01/10 12:23:04;;;;;;;;;;;6.40;91.40;;;;;;5038644;28;19924;-72
2021/01/10 12:25:31;;;;;;;;;;;6.50;91.70;;;;;;5053856;28;20015;-72
2021/01/10 12:27:57;;;;;;;;;;;6.50;91.70;;;;;;5054674;28;20407;-72
2021/01/10 12:30:24;;;;;;;;;;;6.50;91.60;;;;;;5054123;28;20024;-72
2021/01/10 12:32:50;;;;;;;;;;;6.50;91.60;;;;;;5054191;28;19935;-72
2021/01/10 12:35:18;;;;;;;;;;;6.60;91.60;;;;;;5054377;28;19925;-72
2021/01/10 12:37:45;;;;;;;;;;;6.60;91.60;;;;;;5062440;28;20470;-72
2021/01/10 12:40:12;;;;;;;;;;;6.70;91.40;;;;;;5054015;28;20013;-72
2021/01/10 12:42:39;;;;;;;;;;;6.70;91.30;;;;;;5053460;28;19925;-72
2021/01/10 12:45:06;;;;;;;;;;;6.70;91.30;;;;;;5053790;28;20055;-72
2021/01/10 12:47:32;;;;;;;;;;;6.70;91.40;;;;;;5053382;28;20002;-72
2021/01/10 12:49:59;;;;;;;;;;;6.70;91.50;;;;;;5053877;28;20012;-72
2021/01/10 12:52:25;;;;;;;;;;;6.70;91.50;;;;;;5053646;28;19931;-72
2021/01/10 12:54:52;;;;;;;;;;;6.70;91.60;;;;;;5054076;28;20091;-72
2021/01/10 12:57:18;;;;;;;;;;;6.70;91.60;;;;;;5053831;28;20015;-72
2021/01/10 12:59:44;;;;;;;;;;;6.80;91.20;;;;;;5053404;28;20366;-72
2021/01/10 13:02:11;;;;;;;;;;;6.80;91.10;;;;;;5053476;28;19954;-72
2021/01/10 13:04:38;;;;;;;;;;;6.80;91.20;;;;;;5053345;28;20011;-72
2021/01/10 13:07:04;;;;;;;;;;;6.80;91.30;;;;;;5053464;28;19925;-71
2021/01/10 13:09:30;;;;;;;;;;;6.80;91.30;;;;;;5053477;28;20240;-71
2021/01/10 13:11:58;;;;;;;;;;;6.90;91.20;;;;;;5036807;28;20322;-72
2021/01/10 13:14:24;;;;;;;;;;;6.80;91.00;;;;;;5033514;28;20011;-71
2021/01/10 13:16:51;;;;;;;;;;;6.80;91.00;;;;;;5033927;28;20012;-71
2021/01/10 13:19:17;;;;;;;;;;;6.80;90.90;;;;;;5033660;28;20012;-71
2021/01/10 13:21:43;;;;;;;;;;;6.70;90.80;;;;;;5033230;28;19933;-71
2021/01/10 13:24:10;;;;;;;;;;;6.70;90.90;;;;;;5046416;28;20027;-71
2021/01/10 13:26:36;;;;;;;;;;;6.80;90.90;;;;;;5052864;28;19935;-72
2021/01/10 13:29:03;;;;;;;;;;;6.80;91.00;;;;;;5053934;28;19925;-71
2021/01/10 13:31:33;;;;;;;;;;;6.80;91.00;;;;;;5052805;28;20012;-71
2021/01/10 13:33:59;;;;;;;;;;;6.80;91.10;;;;;;5053408;28;19924;-71
2021/01/10 13:36:25;;;;;;;;;;;6.80;90.90;;;;;;5052982;28;19929;-71
2021/01/10 13:38:51;;;;;;;;;;;6.80;90.80;;;;;;5053381;28;20011;-71
2021/01/10 13:41:20;;;;;;;;;;;6.80;90.80;;;;;;5053061;28;20329;-71
2021/01/10 13:43:46;;;;;;;;;;;6.80;91.00;;;;;;5052919;28;19935;-71
2021/01/10 13:46:14;;;;;;;;;;;6.80;91.00;;;;;;5052854;28;19924;-71
2021/01/10 13:48:40;;;;;;;;;;;6.80;91.10;;;;;;5052971;28;20016;-72
2021/01/10 13:51:14;;;;;;;;;;;6.70;91.10;;;;;;5053098;28;19981;-71
2021/01/10 13:53:40;;;;;;;;;;;6.70;91.10;;;;;;5052841;28;19924;-71
2021/01/10 13:56:13;;;;;;;;;;;6.60;91.00;;;;;;5052168;28;19925;-72
2021/01/10 13:58:39;;;;;;;;;;;6.60;91.10;;;;;;5052826;28;20012;-71
2021/01/10 14:01:06;;;;;;;;;;;6.60;91.30;;;;;;5052865;28;19929;-71
2021/01/10 14:03:33;;;;;;;;;;;6.60;91.10;;;;;;5052467;28;20381;-71
2021/01/10 14:05:59;;;;;;;;;;;6.50;91.10;;;;;;5052799;28;19933;-71
2021/01/10 14:08:25;;;;;;;;;;;6.40;91.30;;;;;;5052778;28;19931;-72
2021/01/10 14:10:51;;;;;;;;;;;6.40;91.40;;;;;;5045157;28;19945;-71
2021/01/10 14:13:17;;;;;;;;;;;6.30;91.60;;;;;;5032813;28;19925;-71
2021/01/10 14:15:44;;;;;;;;;;;6.30;91.70;;;;;;5032323;28;19933;-71
2021/01/10 14:18:10;;;;;;;;;;;6.30;91.70;;;;;;5033106;28;19935;-71
2021/01/10 14:20:38;;;;;;;;;;;6.30;91.50;;;;;;5032441;28;20288;-72
2021/01/10 14:23:05;;;;;;;;;;;6.30;91.60;;;;;;5036935;28;20259;-72
2021/01/10 14:25:31;;;;;;;;;;;6.30;91.80;;;;;;5052136;28;19925;-71
2021/01/10 14:27:57;;;;;;;;;;;6.30;91.60;;;;;;5052716;28;20019;-71
2021/01/10 14:30:24;;;;;;;;;;;6.30;91.40;;;;;;5052525;28;19924;-71
2021/01/10 14:32:51;;;;;;;;;;;6.30;91.30;;;;;;5052347;28;19928;-71